Time;durP1;ratioP1;P1;durP2;ratioP2;P2;SDS_P1;SDS_P2;PMS_P1;PMS_P2;Temp;Humidity;BMP_temperature;BMP_pressure;BME280_temperature;BME280_humidity;BME280_pressure;Samples;Min_cycle;Max_cycle;Signal;HPM_P1;HPM_P2
2021/04/16 00:00:11;;;;;;;84.30;12.18;;;;;;;;;;4982720;28;20031;-45
2021/04/16 00:02:38;;;;;;;72.10;10.88;;;;;;;;;;4985938;28;20054;-46
2021/04/16 00:05:06;;;;;;;102.35;13.02;;;;;;;;;;4983378;28;20010;-43
2021/04/16 00:07:33;;;;;;;86.63;12.63;;;;;;;;;;4986203;28;20533;-46
2021/04/16 00:10:00;;;;;;;94.07;13.20;;;;;;;;;;4979934;28;20482;-45
2021/04/16 00:12:28;;;;;;;85.50;11.85;;;;;;;;;;4978936;28;20022;-48
2021/04/16 00:14:55;;;;;;;99.40;11.80;;;;;;;;;;4988589;28;20081;-52
2021/04/16 00:17:22;;;;;;;86.82;12.48;;;;;;;;;;4983282;28;20490;-44
2021/04/16 00:19:49;;;;;;;78.78;11.25;;;;;;;;;;4986653;28;20080;-46
2021/04/16 00:22:16;;;;;;;91.95;12.50;;;;;;;;;;4986705;28;20018;-53
2021/04/16 00:24:43;;;;;;;66.85;11.65;;;;;;;;;;4991394;28;20033;-48
2021/04/16 00:27:10;;;;;;;78.75;14.45;;;;;;;;;;4984348;28;20057;-47
2021/04/16 00:29:37;;;;;;;79.20;12.52;;;;;;;;;;4991165;28;20109;-49
2021/04/16 00:32:04;;;;;;;96.85;13.73;;;;;;;;;;4989532;28;20023;-48
2021/04/16 00:34:32;;;;;;;78.20;12.15;;;;;;;;;;4991342;28;20469;-45
2021/04/16 00:36:59;;;;;;;81.55;12.48;;;;;;;;;;4987580;28;20290;-46
2021/04/16 00:39:26;;;;;;;89.63;13.00;;;;;;;;;;4987454;28;20030;-50
2021/04/16 00:41:53;;;;;;;87.90;14.07;;;;;;;;;;4981054;28;20031;-53
2021/04/16 00:44:21;;;;;;;74.40;13.73;;;;;;;;;;4980474;28;20029;-47
2021/04/16 00:46:52;;;;;;;97.00;14.93;;;;;;;;;;4987459;28;20097;-54
2021/04/16 00:49:30;;;;;;;92.22;15.75;;;;;;;;;;4976902;28;20168;-47
2021/04/16 00:52:02;;;;;;;110.22;16.48;;;;;;;;;;4977371;28;20458;-45
2021/04/16 00:54:32;;;;;;;90.57;16.38;;;;;;;;;;4983328;28;20030;-52
2021/04/16 00:56:59;;;;;;;94.40;15.88;;;;;;;;;;4985738;28;20054;-51
2021/04/16 00:59:29;;;;;;;91.38;15.38;;;;;;;;;;4979052;28;20022;-52
2021/04/16 01:01:57;;;;;;;84.25;15.25;;;;;;;;;;4989975;28;20393;-45
2021/04/16 01:04:25;;;;;;;90.97;15.13;;;;;;;;;;4990318;28;20025;-51
2021/04/16 01:06:53;;;;;;;83.75;15.20;;;;;;;;;;4986010;28;20355;-46
2021/04/16 01:09:20;;;;;;;91.00;15.18;;;;;;;;;;4973057;28;20034;-50
2021/04/16 01:11:47;;;;;;;77.40;13.75;;;;;;;;;;4968759;28;20026;-46
2021/04/16 01:14:15;;;;;;;70.95;13.70;;;;;;;;;;4980918;28;20026;-50
2021/04/16 01:16:42;;;;;;;70.03;13.23;;;;;;;;;;4985722;28;20026;-45
2021/04/16 01:19:16;;;;;;;75.93;13.45;;;;;;;;;;4984116;28;20371;-47
2021/04/16 01:21:47;;;;;;;81.00;13.85;;;;;;;;;;4985798;28;20029;-45
2021/04/16 01:24:26;;;;;;;83.45;13.15;;;;;;;;;;4989760;28;20031;-51
2021/04/16 01:26:54;;;;;;;92.13;14.35;;;;;;;;;;4983813;28;20046;-49
2021/04/16 01:29:21;;;;;;;84.22;13.05;;;;;;;;;;4985067;28;20409;-50
2021/04/16 01:31:48;;;;;;;91.07;14.57;;;;;;;;;;4981910;28;20027;-53
2021/04/16 01:34:16;;;;;;;95.60;13.98;;;;;;;;;;4984709;28;20477;-52
2021/04/16 01:36:43;;;;;;;70.78;12.98;;;;;;;;;;4985035;28;20060;-55
2021/04/16 01:39:10;;;;;;;76.70;12.65;;;;;;;;;;4982746;28;20037;-47
2021/04/16 01:41:38;;;;;;;88.20;14.02;;;;;;;;;;4984836;28;20084;-47
2021/04/16 01:44:06;;;;;;;72.50;11.45;;;;;;;;;;4985908;28;20085;-46
2021/04/16 01:46:50;;;;;;;62.63;11.65;;;;;;;;;;4980749;28;20027;-47
2021/04/16 01:49:18;;;;;;;70.75;13.32;;;;;;;;;;4982074;28;20529;-46
2021/04/16 01:51:45;;;;;;;61.28;11.95;;;;;;;;;;4982921;28;20114;-46
2021/04/16 01:54:14;;;;;;;63.95;12.18;;;;;;;;;;4983593;28;20171;-48
2021/04/16 01:56:42;;;;;;;60.42;12.02;;;;;;;;;;4980586;28;20494;-46
2021/04/16 01:59:20;;;;;;;64.55;12.18;;;;;;;;;;4987700;28;20048;-46
2021/04/16 02:01:47;;;;;;;74.38;12.02;;;;;;;;;;4984118;28;20038;-46
2021/04/16 02:04:15;;;;;;;59.42;11.48;;;;;;;;;;4989962;28;20166;-48
2021/04/16 02:06:43;;;;;;;62.97;11.82;;;;;;;;;;4993139;28;20030;-47
2021/04/16 02:09:12;;;;;;;61.42;11.68;;;;;;;;;;4984748;28;20065;-46
2021/04/16 02:11:40;;;;;;;60.10;12.77;;;;;;;;;;4981110;28;20066;-46
2021/04/16 02:14:18;;;;;;;72.03;13.27;;;;;;;;;;4989870;28;20033;-45
2021/04/16 02:16:46;;;;;;;70.28;13.10;;;;;;;;;;4988660;28;20026;-46
2021/04/16 02:19:14;;;;;;;69.78;13.93;;;;;;;;;;4991847;28;20026;-47
2021/04/16 02:21:41;;;;;;;78.95;13.40;;;;;;;;;;4986551;28;20462;-45
2021/04/16 02:24:09;;;;;;;73.22;13.63;;;;;;;;;;4993395;28;20065;-45
2021/04/16 02:26:36;;;;;;;70.35;14.68;;;;;;;;;;4988856;28;20518;-45
2021/04/16 02:29:04;;;;;;;80.78;14.15;;;;;;;;;;4988177;28;20395;-46
2021/04/16 02:31:32;;;;;;;60.55;13.65;;;;;;;;;;4988263;28;20030;-45
2021/04/16 02:33:59;;;;;;;62.90;13.90;;;;;;;;;;4981707;28;20023;-47
2021/04/16 02:36:26;;;;;;;80.25;13.77;;;;;;;;;;4994624;28;20041;-45
2021/04/16 02:38:54;;;;;;;82.65;14.15;;;;;;;;;;4978360;28;20030;-46
2021/04/16 02:41:21;;;;;;;61.78;14.68;;;;;;;;;;4995870;28;20474;-45
2021/04/16 02:43:49;;;;;;;79.68;14.60;;;;;;;;;;4995974;28;20022;-47
2021/04/16 02:46:16;;;;;;;68.55;13.38;;;;;;;;;;4995811;28;20019;-44
2021/04/16 02:48:43;;;;;;;66.57;14.13;;;;;;;;;;4995418;28;20122;-45
2021/04/16 02:51:10;;;;;;;65.80;13.55;;;;;;;;;;4994532;28;20041;-44
2021/04/16 02:53:37;;;;;;;57.70;14.48;;;;;;;;;;4994074;28;20037;-44
2021/04/16 02:56:04;;;;;;;67.13;14.50;;;;;;;;;;4995161;28;20096;-45
2021/04/16 02:58:31;;;;;;;74.13;14.48;;;;;;;;;;4995643;28;20038;-45
2021/04/16 03:00:59;;;;;;;68.00;14.73;;;;;;;;;;4995647;28;20026;-46
2021/04/16 03:03:26;;;;;;;64.30;14.07;;;;;;;;;;4995523;28;20459;-45
2021/04/16 03:05:53;;;;;;;62.90;13.75;;;;;;;;;;4978078;28;20554;-45
2021/04/16 03:08:21;;;;;;;59.05;14.00;;;;;;;;;;4995348;28;20077;-47
2021/04/16 03:10:49;;;;;;;59.13;13.52;;;;;;;;;;4994395;28;20053;-45
2021/04/16 03:13:16;;;;;;;51.15;12.60;;;;;;;;;;4995369;28;20026;-46
2021/04/16 03:15:43;;;;;;;55.90;13.02;;;;;;;;;;4995275;28;20058;-46
2021/04/16 03:18:10;;;;;;;51.03;12.48;;;;;;;;;;4977634;28;20039;-47
2021/04/16 03:20:37;;;;;;;59.72;14.20;;;;;;;;;;4989977;28;20141;-45
2021/04/16 03:23:04;;;;;;;51.95;13.10;;;;;;;;;;4989679;28;20045;-46
2021/04/16 03:25:31;;;;;;;52.55;13.40;;;;;;;;;;4994468;28;21338;-45
2021/04/16 03:27:59;;;;;;;54.20;12.60;;;;;;;;;;4994641;28;20042;-46
2021/04/16 03:30:27;;;;;;;49.10;12.25;;;;;;;;;;4975899;28;20030;-46
2021/04/16 03:32:54;;;;;;;51.70;12.52;;;;;;;;;;4989487;28;20030;-44
2021/04/16 03:35:21;;;;;;;49.10;12.38;;;;;;;;;;4993351;28;20023;-45
2021/04/16 03:37:49;;;;;;;49.20;12.90;;;;;;;;;;4993862;28;20053;-46
2021/04/16 03:40:18;;;;;;;48.00;12.25;;;;;;;;;;4991692;28;20360;-47
2021/04/16 03:42:45;;;;;;;44.60;12.10;;;;;;;;;;4992947;28;20508;-46
2021/04/16 03:45:14;;;;;;;43.67;12.50;;;;;;;;;;4993760;28;20030;-44
2021/04/16 03:47:45;;;;;;;47.08;12.45;;;;;;;;;;4989082;28;20026;-46
2021/04/16 03:50:14;;;;;;;50.97;11.80;;;;;;;;;;4993083;28;20100;-45
2021/04/16 03:52:41;;;;;;;47.03;13.18;;;;;;;;;;4993902;28;20157;-46
2021/04/16 03:55:09;;;;;;;49.08;11.90;;;;;;;;;;4991594;28;20038;-48
2021/04/16 03:57:36;;;;;;;42.42;11.73;;;;;;;;;;4988677;28;20397;-47
2021/04/16 04:00:05;;;;;;;47.40;11.93;;;;;;;;;;4994262;28;20042;-49
2021/04/16 04:02:32;;;;;;;39.17;10.80;;;;;;;;;;4993366;28;20031;-52
2021/04/16 04:04:59;;;;;;;48.28;11.65;;;;;;;;;;4976134;28;20023;-50
2021/04/16 04:07:26;;;;;;;43.35;11.15;;;;;;;;;;4988983;28;20494;-52
2021/04/16 04:09:53;;;;;;;43.35;11.43;;;;;;;;;;4993944;28;20022;-52
2021/04/16 04:12:20;;;;;;;34.00;10.85;;;;;;;;;;4993387;28;20026;-52
2021/04/16 04:14:47;;;;;;;38.95;11.48;;;;;;;;;;4993685;28;20021;-54
2021/04/16 04:17:26;;;;;;;53.05;11.73;;;;;;;;;;4983182;28;20110;-55
2021/04/16 04:19:53;;;;;;;35.63;10.98;;;;;;;;;;4993829;28;20471;-52
2021/04/16 04:22:20;;;;;;;42.45;11.35;;;;;;;;;;4993149;28;20077;-48
2021/04/16 04:24:47;;;;;;;46.70;11.13;;;;;;;;;;4993359;28;20026;-52
2021/04/16 04:27:15;;;;;;;35.60;10.88;;;;;;;;;;4988427;28;20573;-48
2021/04/16 04:29:42;;;;;;;41.25;11.82;;;;;;;;;;4993602;28;20034;-52
2021/04/16 04:32:09;;;;;;;35.67;10.35;;;;;;;;;;4993532;28;20029;-48
2021/04/16 04:34:37;;;;;;;39.40;10.70;;;;;;;;;;4992779;28;20054;-48
2021/04/16 04:37:05;;;;;;;34.38;10.75;;;;;;;;;;4972207;28;20158;-45
2021/04/16 04:39:33;;;;;;;36.45;10.45;;;;;;;;;;4992511;28;20419;-52
2021/04/16 04:42:01;;;;;;;34.95;10.60;;;;;;;;;;4993434;28;20026;-46
2021/04/16 04:44:28;;;;;;;33.95;10.95;;;;;;;;;;4992436;28;20382;-47
2021/04/16 04:46:55;;;;;;;35.22;10.48;;;;;;;;;;4992169;28;20026;-48
2021/04/16 04:49:22;;;;;;;32.88;10.45;;;;;;;;;;4989711;28;20082;-46
2021/04/16 04:51:50;;;;;;;33.00;9.95;;;;;;;;;;4993015;28;20022;-48
2021/04/16 04:54:18;;;;;;;29.40;9.70;;;;;;;;;;4992546;28;20022;-49
2021/04/16 04:56:46;;;;;;;31.73;10.02;;;;;;;;;;4992912;28;20057;-47
2021/04/16 04:59:13;;;;;;;31.27;10.25;;;;;;;;;;4988188;28;20018;-48
2021/04/16 05:01:40;;;;;;;39.03;11.73;;;;;;;;;;4992901;28;20046;-46
2021/04/16 05:04:07;;;;;;;38.78;11.07;;;;;;;;;;4992540;28;20536;-48
2021/04/16 05:06:34;;;;;;;33.58;9.82;;;;;;;;;;4992539;28;20400;-47
2021/04/16 05:09:01;;;;;;;36.67;9.98;;;;;;;;;;4988038;28;20029;-52
2021/04/16 05:11:28;;;;;;;34.08;10.07;;;;;;;;;;4992848;28;20105;-49
2021/04/16 05:13:55;;;;;;;33.08;10.75;;;;;;;;;;4992503;28;20033;-51
2021/04/16 05:16:22;;;;;;;30.63;9.38;;;;;;;;;;4992127;28;20023;-49
2021/04/16 05:18:52;;;;;;;29.15;9.95;;;;;;;;;;4988043;28;20036;-50
2021/04/16 05:21:19;;;;;;;32.60;10.27;;;;;;;;;;4992618;28;20069;-50
2021/04/16 05:23:46;;;;;;;24.92;9.27;;;;;;;;;;4992486;28;20030;-47
2021/04/16 05:26:13;;;;;;;31.52;9.82;;;;;;;;;;4992037;28;20100;-45
2021/04/16 05:28:40;;;;;;;28.70;9.73;;;;;;;;;;4970769;28;20031;-44
2021/04/16 05:31:07;;;;;;;30.08;10.15;;;;;;;;;;4992516;28;20519;-45
2021/04/16 05:33:34;;;;;;;27.45;9.80;;;;;;;;;;4990907;28;20081;-46
2021/04/16 05:36:01;;;;;;;31.10;9.73;;;;;;;;;;4990497;28;20601;-46
2021/04/16 05:38:28;;;;;;;33.83;9.45;;;;;;;;;;4989120;28;20508;-45
2021/04/16 05:40:55;;;;;;;26.83;8.98;;;;;;;;;;4991319;28;20027;-45
2021/04/16 05:43:22;;;;;;;25.50;10.43;;;;;;;;;;4992516;28;20030;-47
2021/04/16 05:45:49;;;;;;;28.08;9.48;;;;;;;;;;4991810;28;20471;-45
2021/04/16 05:48:16;;;;;;;28.08;9.15;;;;;;;;;;4992361;28;20476;-45
2021/04/16 05:50:44;;;;;;;32.38;9.68;;;;;;;;;;4987960;28;20088;-46
2021/04/16 05:53:11;;;;;;;29.85;9.35;;;;;;;;;;4992348;28;20022;-46
2021/04/16 05:55:40;;;;;;;24.75;8.93;;;;;;;;;;4991986;28;20022;-43
2021/04/16 05:58:07;;;;;;;27.83;9.50;;;;;;;;;;4992171;28;20034;-46
2021/04/16 06:00:35;;;;;;;22.80;8.90;;;;;;;;;;4987684;28;20450;-45
2021/04/16 06:03:02;;;;;;;31.70;9.90;;;;;;;;;;4992444;28;20478;-46
2021/04/16 06:05:29;;;;;;;27.75;9.50;;;;;;;;;;4992275;28;20038;-45
2021/04/16 06:07:56;;;;;;;27.55;9.23;;;;;;;;;;4991722;28;20058;-46
2021/04/16 06:10:24;;;;;;;26.17;9.00;;;;;;;;;;4987737;28;20053;-45
2021/04/16 06:12:52;;;;;;;22.70;8.43;;;;;;;;;;4992452;28;20021;-44
2021/04/16 06:15:22;;;;;;;19.52;8.40;;;;;;;;;;4992172;28;20470;-47
2021/04/16 06:17:49;;;;;;;27.80;9.50;;;;;;;;;;4991512;28;20548;-45
2021/04/16 06:20:18;;;;;;;21.27;8.40;;;;;;;;;;4987603;28;20056;-50
2021/04/16 06:22:47;;;;;;;26.30;8.57;;;;;;;;;;4991964;28;20497;-45
2021/04/16 06:25:15;;;;;;;23.70;8.80;;;;;;;;;;4992260;28;20036;-50
2021/04/16 06:27:42;;;;;;;24.77;8.13;;;;;;;;;;5010983;28;20042;-54
2021/04/16 06:30:10;;;;;;;22.48;8.52;;;;;;;;;;5003131;28;20041;-51
2021/04/16 06:32:37;;;;;;;21.13;8.93;;;;;;;;;;4992011;28;20371;-52
2021/04/16 06:35:05;;;;;;;25.20;8.40;;;;;;;;;;4992242;28;20031;-52
2021/04/16 06:37:32;;;;;;;25.30;8.40;;;;;;;;;;4991159;28;20038;-49
2021/04/16 06:39:59;;;;;;;30.30;9.18;;;;;;;;;;4990611;28;20161;-50
2021/04/16 06:42:32;;;;;;;19.85;7.95;;;;;;;;;;4991590;28;20469;-46
2021/04/16 06:45:00;;;;;;;21.63;9.00;;;;;;;;;;4993245;28;20497;-49
2021/04/16 06:47:27;;;;;;;23.88;8.32;;;;;;;;;;4994726;28;20035;-49
2021/04/16 06:49:57;;;;;;;22.35;8.32;;;;;;;;;;4993863;28;20042;-46
2021/04/16 06:52:29;;;;;;;21.38;8.38;;;;;;;;;;5010770;28;20037;-48
2021/04/16 06:55:11;;;;;;;24.27;8.18;;;;;;;;;;5015067;28;20081;-52
2021/04/16 06:57:56;;;;;;;23.48;8.18;;;;;;;;;;5014142;28;20053;-50
2021/04/16 07:00:42;;;;;;;21.83;7.72;;;;;;;;;;5011504;28;20030;-47
2021/04/16 07:03:11;;;;;;;25.80;8.38;;;;;;;;;;4975746;28;20493;-46
2021/04/16 07:05:40;;;;;;;27.35;8.23;;;;;;;;;;4975462;28;20035;-48
2021/04/16 07:08:08;;;;;;;22.40;7.97;;;;;;;;;;4975045;28;20441;-48
2021/04/16 07:10:39;;;;;;;20.27;8.13;;;;;;;;;;4978452;28;20030;-46
2021/04/16 07:13:07;;;;;;;21.40;8.20;;;;;;;;;;4976398;28;20492;-49
2021/04/16 07:15:45;;;;;;;18.80;8.40;;;;;;;;;;4977517;28;20390;-50
2021/04/16 07:18:25;;;;;;;21.52;7.65;;;;;;;;;;4994064;28;20038;-47
2021/04/16 07:20:52;;;;;;;17.45;7.88;;;;;;;;;;4992239;28;20108;-49
2021/04/16 07:23:19;;;;;;;18.70;7.47;;;;;;;;;;4992991;28;20018;-48
2021/04/16 07:26:06;;;;;;;17.88;7.38;;;;;;;;;;4994435;28;20054;-51
2021/04/16 07:28:44;;;;;;;18.38;7.82;;;;;;;;;;4993867;28;20046;-50
2021/04/16 07:31:29;;;;;;;17.38;7.57;;;;;;;;;;4991075;28;20125;-47
2021/04/16 07:33:57;;;;;;;15.75;6.88;;;;;;;;;;4994635;28;20037;-48
2021/04/16 07:36:26;;;;;;;17.35;6.90;;;;;;;;;;4994556;28;20076;-43
2021/04/16 07:38:59;;;;;;;15.07;7.13;;;;;;;;;;4993903;28;20034;-46
2021/04/16 07:41:28;;;;;;;18.65;7.35;;;;;;;;;;4990890;28;20026;-44
2021/04/16 07:43:56;;;;;;;15.90;7.13;;;;;;;;;;4993422;28;20061;-49
2021/04/16 07:46:26;;;;;;;20.00;7.60;;;;;;;;;;4994607;28;20023;-49
2021/04/16 07:49:13;;;;;;;15.13;7.07;;;;;;;;;;4994116;28;20022;-47
2021/04/16 07:51:41;;;;;;;12.80;6.88;;;;;;;;;;4990365;28;20866;-46
2021/04/16 07:54:13;;;;;;;15.32;6.65;;;;;;;;;;4993206;28;20113;-47
2021/04/16 07:56:40;;;;;;;;;;;;;;;;;;4994390;28;20112;-47
2021/04/16 07:59:13;;;;;;;15.73;6.43;;;;;;;;;;4994003;28;19913;-45
2021/04/16 08:01:44;;;;;;;15.80;6.63;;;;;;;;;;4991830;28;20014;-45
2021/04/16 08:04:11;;;;;;;15.93;6.53;;;;;;;;;;4991512;28;20386;-46
2021/04/16 08:06:40;;;;;;;15.10;7.03;;;;;;;;;;4994056;28;20089;-45
2021/04/16 08:09:12;;;;;;;14.52;5.97;;;;;;;;;;4993759;28;20030;-45
2021/04/16 08:11:40;;;;;;;12.40;5.80;;;;;;;;;;4993329;28;20028;-47
2021/04/16 08:14:22;;;;;;;14.02;6.22;;;;;;;;;;4989384;28;20057;-46
2021/04/16 08:17:02;;;;;;;15.55;6.60;;;;;;;;;;4987673;28;20474;-50
2021/04/16 08:19:39;;;;;;;13.90;6.53;;;;;;;;;;4988355;28;20022;-46
2021/04/16 08:22:28;;;;;;;13.95;6.28;;;;;;;;;;4971811;28;20018;-45
2021/04/16 08:25:13;;;;;;;15.55;6.13;;;;;;;;;;4987944;28;20356;-45
2021/04/16 08:27:45;;;;;;;13.07;6.20;;;;;;;;;;4986291;28;20057;-47
2021/04/16 08:30:21;;;;;;;11.05;5.68;;;;;;;;;;4993325;28;20065;-46
2021/04/16 08:33:01;;;;;;;11.05;5.40;;;;;;;;;;4988623;28;20060;-44
2021/04/16 08:35:43;;;;;;;13.73;6.68;;;;;;;;;;4993506;28;20118;-46
2021/04/16 08:38:11;;;;;;;11.18;5.22;;;;;;;;;;4993230;28;20042;-46
2021/04/16 08:40:43;;;;;;;12.13;5.65;;;;;;;;;;4992916;28;20031;-48
2021/04/16 08:43:24;;;;;;;14.27;5.70;;;;;;;;;;4988443;28;20061;-45
2021/04/16 08:45:52;;;;;;;14.87;6.00;;;;;;;;;;4993416;28;20489;-49
2021/04/16 08:48:26;;;;;;;15.07;5.50;;;;;;;;;;4993278;28;20025;-47
2021/04/16 08:51:01;;;;;;;12.40;5.80;;;;;;;;;;4992669;28;20099;-47
2021/04/16 08:53:28;;;;;;;12.95;5.35;;;;;;;;;;4988309;28;20069;-48
2021/04/16 08:55:55;;;;;;;10.07;5.25;;;;;;;;;;4993105;28;20065;-48
2021/04/16 08:58:28;;;;;;;14.70;5.88;;;;;;;;;;4992951;28;20041;-49
2021/04/16 09:01:15;;;;;;;11.48;5.20;;;;;;;;;;4992594;28;20053;-46
2021/04/16 09:03:42;;;;;;;10.30;5.05;;;;;;;;;;4987745;28;20039;-45
2021/04/16 09:06:20;;;;;;;11.70;4.90;;;;;;;;;;4993318;28;20444;-46
2021/04/16 09:08:48;;;;;;;12.70;5.63;;;;;;;;;;4992238;28;20041;-45
2021/04/16 09:11:33;;;;;;;13.75;5.30;;;;;;;;;;4992695;28;20058;-46
2021/04/16 09:14:00;;;;;;;8.98;4.65;;;;;;;;;;4987724;28;20034;-46
2021/04/16 09:16:39;;;;;;;12.75;4.90;;;;;;;;;;4993016;28;20176;-46
2021/04/16 09:19:24;;;;;;;12.15;5.05;;;;;;;;;;4993067;28;20486;-44
2021/04/16 09:22:06;;;;;;;11.90;4.90;;;;;;;;;;4992870;28;20022;-46
2021/04/16 09:24:53;;;;;;;13.23;4.85;;;;;;;;;;4988049;28;20018;-45
2021/04/16 09:27:26;;;;;;;10.30;4.90;;;;;;;;;;4975311;28;20177;-46
2021/04/16 09:30:13;;;;;;;10.05;4.65;;;;;;;;;;4992613;28;20018;-45
2021/04/16 09:32:46;;;;;;;8.55;4.43;;;;;;;;;;4984921;28;20061;-45
2021/04/16 09:35:18;;;;;;;10.18;4.97;;;;;;;;;;4987898;28;20449;-46
2021/04/16 09:37:47;;;;;;;7.38;4.28;;;;;;;;;;4992595;28;20027;-45
2021/04/16 09:40:21;;;;;;;10.00;4.95;;;;;;;;;;4992670;28;20037;-47
2021/04/16 09:43:01;;;;;;;8.77;4.35;;;;;;;;;;4992042;28;20432;-46
2021/04/16 09:45:31;;;;;;;11.52;4.10;;;;;;;;;;4987816;28;20022;-46
2021/04/16 09:48:01;;;;;;;8.40;4.30;;;;;;;;;;4992658;28;20057;-44
2021/04/16 09:50:34;;;;;;;8.60;4.30;;;;;;;;;;4991166;28;20029;-45
2021/04/16 09:53:19;;;;;;;9.75;4.10;;;;;;;;;;4991821;28;20042;-45
2021/04/16 09:55:59;;;;;;;7.90;4.35;;;;;;;;;;4987482;28;20030;-44
2021/04/16 10:01:05;;;;;;;7.43;4.30;;;;;;;;;;4992236;28;20034;-44
2021/04/16 10:03:50;;;;;;;8.05;4.45;;;;;;;;;;4991528;28;20061;-45
2021/04/16 10:06:31;;;;;;;6.93;3.92;;;;;;;;;;4987309;28;20106;-44
2021/04/16 10:09:06;;;;;;;7.55;4.00;;;;;;;;;;4992313;28;20041;-45
2021/04/16 10:11:34;;;;;;;10.32;4.40;;;;;;;;;;4992169;28;20381;-46
2021/04/16 10:14:33;;;;;;;7.95;4.25;;;;;;;;;;4990440;28;20050;-45
2021/04/16 10:17:06;;;;;;;7.88;3.72;;;;;;;;;;4958327;28;20036;-46
2021/04/16 10:19:37;;;;;;;9.48;3.70;;;;;;;;;;4994368;28;20535;-45
2021/04/16 10:22:11;;;;;;;8.40;3.78;;;;;;;;;;4995496;28;20045;-45
2021/04/16 10:28:41;;;;;;;8.80;4.00;;;;;;;;;;4990886;28;20045;-45
2021/04/16 12:39:24;;;;;;;21.02;3.17;;;;;;;;;;4991908;28;20414;-60
2021/04/16 12:41:54;;;;;;;25.30;3.60;;;;;;;;;;4988177;28;20018;-65
2021/04/16 12:44:24;;;;;;;23.52;3.17;;;;;;;;;;4989736;28;20410;-63
2021/04/16 12:47:02;;;;;;;27.35;3.25;;;;;;;;;;4991999;28;20018;-62
2021/04/16 12:49:30;;;;;;;19.95;3.22;;;;;;;;;;4991836;28;20058;-61
2021/04/16 12:51:58;;;;;;;15.27;2.53;;;;;;;;;;4989642;28;20101;-60
2021/04/16 12:54:25;;;;;;;25.83;3.53;;;;;;;;;;4986025;28;20033;-61
2021/04/16 12:56:52;;;;;;;30.35;4.57;;;;;;;;;;4991700;28;20462;-62
2021/04/16 12:59:20;;;;;;;17.20;3.38;;;;;;;;;;4991774;28;20100;-61
2021/04/16 13:01:49;;;;;;;22.45;3.42;;;;;;;;;;4991616;28;20028;-67
2021/04/16 13:04:17;;;;;;;24.15;3.03;;;;;;;;;;4987099;28;20078;-65
2021/04/16 13:06:46;;;;;;;24.33;3.83;;;;;;;;;;4988533;28;20448;-65
2021/04/16 13:09:15;;;;;;;33.20;4.28;;;;;;;;;;4991630;28;20049;-64
2021/04/16 13:11:42;;;;;;;26.65;4.00;;;;;;;;;;4991452;28;20030;-63
2021/04/16 13:14:09;;;;;;;25.42;3.75;;;;;;;;;;4986735;28;20050;-61
2021/04/16 13:16:37;;;;;;;42.47;3.85;;;;;;;;;;4991672;28;20038;-64
2021/04/16 13:19:09;;;;;;;28.42;3.90;;;;;;;;;;4989392;28;20010;-70
2021/04/16 13:21:40;;;;;;;32.75;3.38;;;;;;;;;;4989956;28;20113;-61
2021/04/16 13:24:08;;;;;;;25.33;2.97;;;;;;;;;;4984951;28;20094;-66
2021/04/16 13:26:35;;;;;;;27.70;3.60;;;;;;;;;;4990236;28;20049;-65
2021/04/16 13:29:03;;;;;;;15.13;3.20;;;;;;;;;;4989857;28;20053;-61
2021/04/16 13:31:35;;;;;;;29.25;3.50;;;;;;;;;;4982394;28;20023;-61
2021/04/16 13:34:02;;;;;;;33.13;4.03;;;;;;;;;;4985714;28;20057;-63
2021/04/16 13:36:31;;;;;;;33.70;3.75;;;;;;;;;;4973634;28;20030;-61
2021/04/16 13:38:58;;;;;;;27.67;3.08;;;;;;;;;;4990623;28;20410;-64
2021/04/16 13:41:26;;;;;;;28.10;3.03;;;;;;;;;;4989887;28;20026;-62
2021/04/16 13:43:54;;;;;;;19.83;3.60;;;;;;;;;;4990483;28;20022;-63
2021/04/16 13:46:22;;;;;;;25.75;3.42;;;;;;;;;;4990988;28;20540;-63
2021/04/16 13:48:49;;;;;;;23.60;3.15;;;;;;;;;;4990671;28;20116;-67
2021/04/16 13:51:17;;;;;;;19.08;2.80;;;;;;;;;;4991376;28;20077;-61
2021/04/16 13:53:44;;;;;;;20.48;3.20;;;;;;;;;;4984230;28;20038;-61
2021/04/16 13:56:11;;;;;;;23.65;3.55;;;;;;;;;;4986899;28;20030;-61
2021/04/16 13:58:38;;;;;;;21.25;3.60;;;;;;;;;;4994899;28;20023;-61
2021/04/16 14:01:07;;;;;;;16.27;2.78;;;;;;;;;;4995815;28;20018;-61
2021/04/16 14:03:36;;;;;;;19.40;3.20;;;;;;;;;;4995406;28;20022;-61
2021/04/16 14:06:06;;;;;;;17.80;2.90;;;;;;;;;;4993416;28;20027;-61
2021/04/16 14:08:37;;;;;;;14.93;3.17;;;;;;;;;;4995138;28;20038;-61
2021/04/16 14:11:05;;;;;;;17.25;2.97;;;;;;;;;;4995354;28;20375;-62
2021/04/16 14:13:32;;;;;;;21.35;3.10;;;;;;;;;;4995338;28;20077;-61
2021/04/16 14:16:04;;;;;;;29.65;3.70;;;;;;;;;;4995103;28;20053;-62
2021/04/16 14:18:49;;;;;;;23.05;3.40;;;;;;;;;;4993111;28;20026;-62
2021/04/16 14:21:17;;;;;;;20.60;3.38;;;;;;;;;;4995333;28;20537;-61
2021/04/16 14:23:45;;;;;;;33.13;4.35;;;;;;;;;;4995357;28;20471;-61
2021/04/16 14:26:12;;;;;;;22.92;3.70;;;;;;;;;;4981525;28;20133;-62
2021/04/16 14:28:40;;;;;;;27.35;3.85;;;;;;;;;;4994281;28;20038;-61
2021/04/16 14:31:07;;;;;;;25.92;3.92;;;;;;;;;;4993674;28;20018;-62
2021/04/16 14:33:36;;;;;;;32.40;4.35;;;;;;;;;;4995080;28;20022;-61
2021/04/16 14:36:03;;;;;;;20.55;3.70;;;;;;;;;;4994763;28;20406;-62
2021/04/16 14:38:31;;;;;;;13.98;3.58;;;;;;;;;;4995007;28;20359;-62
2021/04/16 14:40:58;;;;;;;17.60;3.72;;;;;;;;;;4970759;28;20045;-61
2021/04/16 14:43:26;;;;;;;18.88;3.50;;;;;;;;;;4988648;28;20141;-61
2021/04/16 14:45:55;;;;;;;19.23;3.60;;;;;;;;;;4987771;28;20088;-62
2021/04/16 14:48:23;;;;;;;16.00;3.53;;;;;;;;;;4983308;28;20034;-62
2021/04/16 14:50:52;;;;;;;22.70;3.95;;;;;;;;;;4994095;28;20501;-62
2021/04/16 14:53:24;;;;;;;19.10;3.35;;;;;;;;;;4983630;28;20162;-64
2021/04/16 14:55:51;;;;;;;28.35;3.67;;;;;;;;;;4993580;28;20023;-62
2021/04/16 14:58:27;;;;;;;20.10;4.00;;;;;;;;;;4994137;28;20026;-63
2021/04/16 15:00:54;;;;;;;27.10;3.40;;;;;;;;;;4986687;28;20034;-61
2021/04/16 15:03:21;;;;;;;19.55;3.20;;;;;;;;;;4975064;28;20049;-63
2021/04/16 15:05:48;;;;;;;24.92;3.60;;;;;;;;;;4982197;28;20018;-64
2021/04/16 15:08:19;;;;;;;23.88;3.85;;;;;;;;;;4993993;28;20030;-63
2021/04/16 15:10:47;;;;;;;21.30;4.30;;;;;;;;;;4986195;28;20093;-63
2021/04/16 15:13:21;;;;;;;19.17;4.07;;;;;;;;;;4986996;28;20494;-63
2021/04/16 15:15:48;;;;;;;35.67;5.60;;;;;;;;;;4989715;28;20074;-63
2021/04/16 15:18:15;;;;;;;37.55;6.53;;;;;;;;;;4986841;28;20495;-64
2021/04/16 15:20:43;;;;;;;33.35;6.40;;;;;;;;;;4993626;28;20014;-64
2021/04/16 15:23:11;;;;;;;37.70;6.30;;;;;;;;;;4985588;28;20481;-64
2021/04/16 15:25:39;;;;;;;44.53;7.55;;;;;;;;;;4987752;28;20033;-64
2021/04/16 15:28:08;;;;;;;37.53;7.25;;;;;;;;;;4990257;28;20080;-63
2021/04/16 15:30:40;;;;;;;37.45;7.05;;;;;;;;;;4976847;28;20027;-63
2021/04/16 15:33:19;;;;;;;48.10;7.13;;;;;;;;;;4988546;28;20034;-64
2021/04/16 15:47:05;;;;;;;38.45;6.78;;;;;;;;;;4987474;28;20041;-63
2021/04/16 15:49:32;;;;;;;;;;;;;;;;;;4993580;28;20042;-63
2021/04/16 15:51:59;;;;;;;40.22;6.13;;;;;;;;;;4992259;28;20024;-63
2021/04/16 15:54:27;;;;;;;33.08;5.80;;;;;;;;;;4986389;28;20038;-63
2021/04/16 15:56:54;;;;;;;26.33;6.05;;;;;;;;;;4992088;28;20027;-63
2021/04/16 15:59:40;;;;;;;33.80;5.80;;;;;;;;;;4992859;28;20022;-63
2021/04/16 16:02:09;;;;;;;32.97;6.40;;;;;;;;;;4981559;28;20030;-64
2021/04/16 16:04:36;;;;;;;34.90;5.50;;;;;;;;;;4988417;28;20030;-63
2021/04/16 16:07:03;;;;;;;34.28;5.30;;;;;;;;;;4975810;28;20486;-63
2021/04/16 16:09:32;;;;;;;31.42;5.30;;;;;;;;;;4992211;28;20030;-63
2021/04/16 16:12:11;;;;;;;28.48;5.30;;;;;;;;;;4991545;28;20414;-63
2021/04/16 16:14:43;;;;;;;20.25;4.57;;;;;;;;;;4990069;28;20088;-63
2021/04/16 16:17:13;;;;;;;28.85;4.85;;;;;;;;;;4988946;28;20023;-64
2021/04/16 16:19:40;;;;;;;27.42;4.68;;;;;;;;;;4991906;28;20046;-64
2021/04/16 16:22:07;;;;;;;26.08;4.50;;;;;;;;;;4992021;28;20021;-66
2021/04/16 16:24:34;;;;;;;31.20;4.72;;;;;;;;;;4990236;28;20034;-63
2021/04/16 16:27:05;;;;;;;26.52;4.35;;;;;;;;;;4986875;28;20049;-76
2021/04/16 16:29:34;;;;;;;24.58;4.38;;;;;;;;;;4984725;28;20390;-65
2021/04/16 16:32:04;;;;;;;39.72;4.00;;;;;;;;;;4991667;28;20092;-66
2021/04/16 16:34:31;;;;;;;21.55;4.13;;;;;;;;;;4991229;28;20037;-64
2021/04/16 16:36:59;;;;;;;20.67;3.78;;;;;;;;;;4987003;28;20077;-64
2021/04/16 16:39:26;;;;;;;19.58;3.47;;;;;;;;;;4991863;28;20352;-64
2021/04/16 16:41:53;;;;;;;27.30;3.78;;;;;;;;;;4989111;28;20030;-64
2021/04/16 16:44:28;;;;;;;36.58;4.55;;;;;;;;;;4991556;28;20026;-65
2021/04/16 16:46:55;;;;;;;23.10;4.03;;;;;;;;;;4986175;28;20073;-63
2021/04/16 16:49:24;;;;;;;25.90;3.80;;;;;;;;;;4991185;28;20029;-65
2021/04/16 16:51:51;;;;;;;16.38;3.60;;;;;;;;;;4991386;28;20036;-66
2021/04/16 16:54:19;;;;;;;21.40;3.55;;;;;;;;;;4990254;28;20072;-69
2021/04/16 16:56:48;;;;;;;21.52;3.53;;;;;;;;;;4992582;28;20018;-66
2021/04/16 16:59:20;;;;;;;16.23;3.38;;;;;;;;;;4992149;28;20022;-67
2021/04/16 17:01:47;;;;;;;19.83;4.05;;;;;;;;;;4991980;28;20037;-62
2021/04/16 17:04:14;;;;;;;11.77;2.80;;;;;;;;;;4982309;28;20101;-63
2021/04/16 17:06:41;;;;;;;14.90;3.53;;;;;;;;;;4988133;28;20034;-67